createdAt,value
2022-09-09T00:00:19.079Z,2.17
2022-09-09T00:03:03.473Z,2.22
2022-09-09T00:06:00.164Z,2.38
2022-09-09T00:08:48.776Z,2.05
2022-09-09T00:11:31.609Z,2.33
2022-09-09T00:14:09.529Z,2.33
2022-09-09T00:16:43.110Z,3.22
2022-09-09T00:19:24.831Z,2.30
2022-09-09T00:22:09.688Z,2.40
2022-09-09T00:24:55.450Z,2.75
2022-09-09T00:27:38.935Z,2.47
2022-09-09T00:30:28.468Z,2.67
2022-09-09T00:33:00.907Z,2.90
2022-09-09T00:35:40.718Z,2.90
2022-09-09T00:38:28.334Z,2.88
2022-09-09T00:41:22.637Z,2.85
2022-09-09T00:44:36.229Z,2.78
2022-09-09T00:47:08.932Z,2.97
2022-09-09T00:50:04.581Z,2.60
2022-09-09T00:53:02.860Z,2.85
2022-09-09T00:56:07.761Z,2.80
2022-09-09T00:58:34.670Z,2.78
2022-09-09T01:01:14.112Z,2.50
2022-09-09T01:03:55.534Z,2.80
2022-09-09T01:06:32.611Z,2.92
2022-09-09T01:09:19.404Z,2.65
2022-09-09T01:12:15.935Z,2.78
2022-09-09T01:14:55.156Z,2.75
2022-09-09T01:17:33.668Z,3.05
2022-09-09T01:20:06.233Z,3.00
2022-09-09T01:23:23.859Z,3.50
2022-09-09T01:26:18.066Z,3.25
2022-09-09T01:28:50.861Z,3.60
2022-09-09T01:31:30.692Z,3.72
2022-09-09T01:34:00.464Z,3.80
2022-09-09T01:36:45.410Z,3.85
2022-09-09T01:39:13.394Z,3.80
2022-09-09T01:41:40.291Z,4.13
2022-09-09T01:44:09.439Z,3.53
2022-09-09T01:46:36.588Z,3.65
2022-09-09T01:49:08.140Z,3.78
2022-09-09T01:51:39.957Z,3.70
2022-09-09T01:54:08.067Z,3.30
2022-09-09T01:56:53.428Z,3.90
2022-09-09T01:59:57.381Z,4.10
2022-09-09T02:03:03.939Z,3.50
2022-09-09T02:05:41.738Z,4.15
2022-09-09T02:08:16.696Z,3.90
2022-09-09T02:11:06.262Z,3.95
2022-09-09T02:13:37.710Z,3.75
2022-09-09T02:16:10.574Z,3.55
2022-09-09T02:19:00.251Z,4.00
2022-09-09T02:21:32.958Z,4.30
2022-09-09T02:24:06.412Z,4.47
2022-09-09T02:26:37.620Z,4.03
2022-09-09T02:29:10.572Z,4.20
2022-09-09T02:31:40.685Z,4.60
2022-09-09T02:34:12.530Z,4.30
2022-09-09T02:36:44.716Z,4.22
2022-09-09T02:39:12.338Z,2.97
2022-09-09T02:41:42.916Z,4.32
2022-09-09T02:44:17.973Z,4.60
2022-09-09T02:47:09.749Z,4.50
2022-09-09T02:50:03.492Z,4.38
2022-09-09T02:52:51.557Z,4.55
2022-09-09T02:55:49.339Z,4.47
2022-09-09T02:58:19.501Z,4.40
2022-09-09T03:00:51.810Z,4.78
2022-09-09T03:03:20.710Z,4.77
2022-09-09T03:05:47.846Z,4.40
2022-09-09T03:08:15.177Z,4.70
2022-09-09T03:10:42.160Z,4.43
2022-09-09T03:13:09.199Z,4.35
2022-09-09T03:15:36.701Z,4.32
2022-09-09T03:18:03.557Z,4.47
2022-09-09T03:20:32.659Z,4.70
2022-09-09T03:23:01.677Z,4.68
2022-09-09T03:25:29.449Z,4.70
2022-09-09T03:27:57.249Z,4.90
2022-09-09T03:30:27.279Z,4.80
2022-09-09T03:32:54.586Z,4.78
2022-09-09T03:35:21.774Z,4.82
2022-09-09T03:37:48.843Z,5.25
2022-09-09T03:40:15.895Z,4.70
2022-09-09T03:42:42.790Z,4.97
2022-09-09T03:45:12.881Z,4.90
2022-09-09T03:47:40.011Z,4.45
2022-09-09T03:50:10.402Z,5.18
2022-09-09T03:52:40.047Z,5.25
2022-09-09T03:55:07.935Z,4.80
2022-09-09T03:57:36.014Z,5.13
2022-09-09T04:00:06.409Z,5.25
2022-09-09T04:02:33.304Z,5.00
2022-09-09T04:05:00.715Z,5.20
2022-09-09T04:07:29.162Z,5.18
2022-09-09T04:09:56.338Z,5.00
2022-09-09T04:12:23.445Z,5.65
2022-09-09T04:14:50.678Z,5.45
2022-09-09T04:17:18.362Z,5.47
2022-09-09T04:19:45.251Z,5.55
2022-09-09T04:22:12.050Z,5.65
2022-09-09T04:24:38.994Z,5.90
2022-09-09T04:27:05.883Z,6.05
2022-09-09T04:29:32.685Z,6.38
2022-09-09T04:32:00.776Z,6.32
2022-09-09T04:34:27.744Z,6.63
2022-09-09T04:36:54.621Z,6.55
2022-09-09T04:39:21.411Z,6.47
2022-09-09T04:41:48.281Z,6.50
2022-09-09T04:44:15.395Z,7.22
2022-09-09T04:46:42.508Z,6.97
2022-09-09T04:49:13.109Z,6.65
2022-09-09T04:51:41.860Z,6.20
2022-09-09T04:54:08.691Z,6.20
2022-09-09T04:56:35.561Z,5.95
2022-09-09T04:59:03.922Z,5.82
2022-09-09T05:01:30.878Z,6.03
2022-09-09T05:03:57.786Z,5.50
2022-09-09T05:06:25.710Z,5.57
2022-09-09T05:08:52.534Z,5.10
2022-09-09T05:11:27.887Z,5.25
2022-09-09T05:13:55.962Z,4.97
2022-09-09T05:16:23.998Z,6.00
2022-09-09T05:18:54.572Z,4.97
2022-09-09T05:21:24.117Z,5.53
2022-09-09T05:23:52.404Z,5.40
2022-09-09T05:26:22.558Z,5.60
2022-09-09T05:28:49.833Z,5.68
2022-09-09T05:31:19.092Z,5.53
2022-09-09T05:33:49.104Z,5.53
2022-09-09T05:36:19.957Z,5.00
2022-09-09T05:38:47.109Z,5.35
2022-09-09T05:41:16.781Z,5.07
2022-09-09T05:43:46.455Z,4.97
2022-09-09T05:46:17.646Z,5.35
2022-09-09T05:48:47.538Z,4.90
2022-09-09T05:51:18.435Z,5.07
2022-09-09T05:53:46.835Z,4.72
2022-09-09T05:56:23.553Z,4.93
2022-09-09T05:58:50.970Z,4.72
2022-09-09T06:01:33.117Z,4.70
2022-09-09T06:04:00.705Z,4.63
2022-09-09T06:06:34.057Z,4.50
2022-09-09T06:09:03.320Z,4.95
2022-09-09T06:11:32.199Z,5.05
2022-09-09T06:13:59.555Z,6.05
2022-09-09T06:16:29.509Z,5.65
2022-09-09T06:18:58.912Z,6.97
2022-09-09T06:21:33.760Z,5.35
2022-09-09T06:24:01.589Z,4.35
2022-09-09T06:26:34.388Z,4.13
2022-09-09T06:29:04.615Z,4.07
2022-09-09T06:31:35.368Z,4.05
2022-09-09T06:34:07.613Z,3.90
2022-09-09T06:36:38.073Z,4.35
2022-09-09T06:39:12.124Z,3.65
2022-09-09T06:41:41.983Z,4.03
2022-09-09T06:44:09.020Z,3.70
2022-09-09T06:46:36.678Z,3.67
2022-09-09T06:49:04.393Z,3.50
2022-09-09T06:51:35.117Z,3.83
2022-09-09T06:54:03.916Z,3.20
2022-09-09T06:56:34.759Z,3.35
2022-09-09T06:59:05.571Z,2.97
2022-09-09T07:01:35.975Z,3.03
2022-09-09T07:04:05.375Z,2.92
2022-09-09T07:06:37.394Z,2.67
2022-09-09T07:09:09.404Z,2.85
2022-09-09T07:11:42.909Z,2.28
2022-09-09T07:14:13.858Z,2.42
2022-09-09T07:16:42.889Z,2.63
2022-09-09T07:19:11.575Z,2.53
2022-09-09T07:21:39.097Z,2.80
2022-09-09T07:24:08.354Z,2.75
2022-09-09T07:26:35.546Z,3.15
2022-09-09T07:29:02.695Z,3.33
2022-09-09T07:31:37.605Z,3.58
2022-09-09T07:34:05.658Z,3.80
2022-09-09T07:36:39.296Z,3.65
2022-09-09T07:39:14.035Z,3.80
2022-09-09T07:41:44.871Z,3.83
2022-09-09T07:44:25.683Z,3.70
2022-09-09T07:46:52.644Z,3.92
2022-09-09T07:49:26.192Z,4.00
2022-09-09T07:51:55.533Z,3.70
2022-09-09T07:54:24.464Z,3.75
2022-09-09T07:56:52.704Z,3.70
2022-09-09T07:59:20.506Z,3.90
2022-09-09T08:01:54.481Z,3.58
2022-09-09T08:04:26.090Z,3.90
2022-09-09T08:07:02.153Z,3.50
2022-09-09T08:09:32.755Z,3.70
2022-09-09T08:11:59.732Z,3.17
2022-09-09T08:14:27.176Z,3.55
2022-09-09T08:16:55.454Z,3.55
2022-09-09T08:19:22.394Z,3.55
2022-09-09T08:21:50.115Z,3.70
2022-09-09T08:24:17.082Z,3.80
2022-09-09T08:26:48.269Z,4.03
2022-09-09T08:29:16.101Z,3.95
2022-09-09T08:31:52.187Z,3.90
2022-09-09T08:34:21.083Z,3.97
2022-09-09T08:36:50.105Z,4.38
2022-09-09T08:39:21.245Z,4.57
2022-09-09T08:42:01.663Z,4.47
2022-09-09T08:44:55.498Z,4.15
2022-09-09T08:48:04.435Z,4.60
2022-09-09T08:50:41.794Z,4.38
2022-09-09T08:53:24.101Z,4.35
2022-09-09T08:56:00.315Z,4.65
2022-09-09T08:58:30.952Z,5.18
2022-09-09T09:01:07.688Z,5.20
2022-09-09T09:04:07.933Z,4.90
2022-09-09T09:06:50.611Z,5.03
2022-09-09T09:10:01.309Z,5.45
2022-09-09T09:12:36.736Z,5.30
2022-09-09T09:15:32.584Z,5.60
2022-09-09T09:17:59.708Z,6.45
2022-09-09T09:21:07.708Z,5.40
2022-09-09T09:23:52.049Z,5.45
2022-09-09T09:26:20.274Z,5.32
2022-09-09T09:28:47.149Z,5.45
2022-09-09T09:31:14.965Z,5.80
2022-09-09T09:33:41.961Z,5.70
2022-09-09T09:36:09.545Z,5.57
2022-09-09T09:41:36.338Z,5.60
2022-09-09T09:44:05.558Z,5.85
2022-09-09T09:46:33.624Z,6.30
2022-09-09T09:49:11.204Z,6.28
2022-09-09T09:51:38.234Z,6.50
2022-09-09T09:54:14.325Z,6.68
2022-09-09T09:56:45.804Z,6.45
2022-09-09T09:59:40.243Z,7.28
2022-09-09T10:02:26.457Z,7.05
2022-09-09T10:05:31.571Z,7.70
2022-09-09T10:08:13.166Z,7.45
2022-09-09T10:11:28.094Z,7.70
2022-09-09T10:14:12.404Z,7.32
2022-09-09T10:17:18.107Z,7.38
2022-09-09T10:20:20.249Z,7.45
2022-09-09T10:22:55.259Z,7.53
2022-09-09T10:26:10.391Z,7.60
2022-09-09T10:29:14.254Z,7.88
2022-09-09T10:35:22.456Z,8.50
2022-09-09T10:38:22.223Z,8.60
2022-09-09T10:40:56.411Z,8.98
2022-09-09T10:43:47.848Z,8.95
2022-09-09T10:46:30.662Z,8.20
2022-09-09T10:49:23.170Z,7.82
2022-09-09T10:52:07.549Z,8.10
2022-09-09T10:55:09.927Z,7.75
2022-09-09T10:57:48.902Z,7.60
2022-09-09T11:00:46.347Z,7.78
2022-09-09T11:03:27.859Z,7.45
2022-09-09T11:06:16.659Z,7.53
2022-09-09T11:08:43.964Z,8.00
2022-09-09T11:11:20.833Z,7.50
2022-09-09T11:13:56.975Z,7.30
2022-09-09T11:17:02.042Z,7.47
2022-09-09T11:19:35.289Z,7.28
2022-09-09T11:22:24.193Z,7.88
2022-09-09T11:25:26.169Z,7.88
2022-09-09T11:28:23.413Z,7.50
2022-09-09T11:31:05.258Z,7.65
2022-09-09T11:34:03.004Z,7.38
2022-09-09T11:37:07.901Z,7.80
2022-09-09T11:40:04.292Z,7.90
2022-09-09T11:42:31.415Z,8.00
2022-09-09T11:44:58.406Z,33.53
2022-09-09T11:47:32.289Z,50.10
2022-09-09T11:50:32.358Z,11.43
2022-09-09T11:53:21.976Z,7.75
2022-09-09T11:56:00.433Z,8.23
2022-09-09T11:58:28.657Z,13.10
2022-09-09T12:00:55.714Z,10.68
2022-09-09T12:03:56.512Z,26.67
2022-09-09T12:06:42.318Z,25.40
2022-09-09T12:09:28.638Z,16.08
2022-09-09T12:12:09.074Z,9.63
2022-09-09T12:15:00.324Z,9.10
2022-09-09T12:17:31.616Z,10.27
2022-09-09T12:20:10.911Z,9.20
2022-09-09T12:23:00.503Z,11.02
2022-09-09T12:26:08.479Z,8.50
2022-09-09T12:29:13.493Z,8.75
2022-09-09T12:31:47.848Z,9.90
2022-09-09T12:34:38.545Z,9.43
2022-09-09T12:37:28.335Z,9.57
2022-09-09T12:40:03.336Z,9.25
2022-09-09T12:42:31.255Z,9.77
2022-09-09T12:45:01.858Z,9.95
2022-09-09T12:47:46.850Z,10.10
2022-09-09T12:50:22.186Z,9.73
2022-09-09T12:52:54.306Z,10.02
2022-09-09T12:55:26.889Z,10.38
2022-09-09T12:57:54.041Z,9.98
2022-09-09T13:00:24.543Z,9.65
2022-09-09T13:02:56.436Z,10.02
2022-09-09T13:05:50.105Z,10.77
2022-09-09T13:11:04.306Z,10.48
2022-09-09T13:13:50.702Z,9.80
2022-09-09T13:16:32.746Z,9.90
2022-09-09T13:19:10.937Z,10.50
2022-09-09T13:21:41.157Z,9.70
2022-09-09T13:24:30.493Z,9.70
2022-09-09T13:27:02.959Z,10.20
2022-09-09T13:29:32.634Z,10.55
2022-09-09T13:32:17.629Z,11.13
2022-09-09T13:34:53.279Z,11.40
2022-09-09T13:37:39.522Z,11.38
2022-09-09T13:40:17.703Z,11.57
2022-09-09T13:42:46.313Z,11.55
2022-09-09T13:45:21.607Z,52.47
2022-09-09T13:47:53.207Z,12.82
2022-09-09T13:50:26.798Z,60.80
2022-09-09T13:52:57.066Z,16.83
2022-09-09T13:55:27.035Z,54.13
2022-09-09T13:57:59.861Z,13.65
2022-09-09T14:00:27.336Z,15.63
2022-09-09T14:02:56.175Z,13.77
2022-09-09T14:05:23.663Z,14.52
2022-09-09T14:07:53.359Z,13.75
2022-09-09T14:10:21.030Z,14.40
2022-09-09T14:12:47.864Z,14.57
2022-09-09T14:15:15.580Z,15.85
2022-09-09T14:17:43.349Z,14.75
2022-09-09T14:20:12.816Z,30.83
2022-09-09T14:22:42.545Z,16.45
2022-09-09T14:25:09.787Z,15.13
2022-09-09T14:27:36.705Z,14.90
2022-09-09T14:30:05.088Z,14.93
2022-09-09T14:32:32.421Z,16.25
2022-09-09T14:34:59.289Z,16.40
2022-09-09T14:37:27.377Z,16.55
2022-09-09T14:39:55.079Z,15.77
2022-09-09T14:42:23.113Z,15.63
2022-09-09T14:44:49.984Z,15.93
2022-09-09T14:47:17.037Z,16.15
2022-09-09T14:49:46.586Z,16.58
2022-09-09T14:52:14.173Z,15.57
2022-09-09T14:54:41.173Z,16.00
2022-09-09T14:57:08.105Z,15.90
2022-09-09T14:59:35.483Z,15.85
2022-09-09T15:02:05.368Z,16.63
2022-09-09T15:04:32.516Z,16.45
2022-09-09T15:06:59.855Z,15.93
2022-09-09T15:09:26.739Z,17.17
2022-09-09T15:11:53.642Z,16.23
2022-09-09T15:14:22.547Z,16.77
2022-09-09T15:16:52.667Z,16.88
2022-09-09T15:19:19.611Z,18.15
2022-09-09T15:21:46.518Z,17.98
2022-09-09T15:24:14.706Z,19.38
2022-09-09T15:26:41.756Z,21.08
2022-09-09T15:29:09.536Z,21.30
2022-09-09T15:31:37.559Z,21.98
2022-09-09T15:34:08.018Z,22.42
2022-09-09T15:36:40.193Z,22.48
2022-09-09T15:39:13.644Z,21.73
2022-09-09T15:41:41.571Z,21.60
2022-09-09T15:44:11.283Z,21.40
2022-09-09T15:46:54.567Z,21.70
2022-09-09T15:49:26.830Z,21.90
2022-09-09T15:51:58.371Z,22.57
2022-09-09T15:54:27.468Z,22.45
2022-09-09T15:56:59.033Z,22.00
2022-09-09T15:59:34.899Z,22.02
2022-09-09T16:02:04.293Z,22.17
2022-09-09T16:04:32.135Z,28.00
2022-09-09T16:07:05.657Z,28.63
2022-09-09T16:09:34.528Z,30.25
2022-09-09T16:12:03.409Z,36.60
2022-09-09T16:14:35.087Z,29.35
2022-09-09T16:17:03.827Z,44.08
2022-09-09T16:19:30.787Z,25.52
2022-09-09T16:21:58.247Z,22.05
2022-09-09T16:24:25.230Z,21.73
2022-09-09T16:26:55.281Z,20.83
2022-09-09T16:29:23.980Z,21.35
2022-09-09T16:31:51.836Z,20.30
2022-09-09T16:34:19.735Z,20.35
2022-09-09T16:36:49.353Z,19.55
2022-09-09T16:39:20.751Z,18.42
2022-09-09T16:41:49.677Z,19.10
2022-09-09T16:44:19.756Z,18.95
2022-09-09T16:46:49.865Z,19.42
2022-09-09T16:49:17.422Z,19.77
2022-09-09T16:51:50.319Z,20.13
2022-09-09T16:54:18.980Z,19.70
2022-09-09T16:56:48.972Z,20.85
2022-09-09T16:59:19.177Z,20.45
2022-09-09T17:01:48.995Z,22.42
2022-09-09T17:04:25.169Z,19.70
2022-09-09T17:06:54.796Z,18.85
2022-09-09T17:09:23.878Z,20.70
2022-09-09T17:11:53.247Z,22.27
2022-09-09T17:14:22.428Z,26.50
2022-09-09T17:16:49.871Z,27.95
2022-09-09T17:19:17.169Z,29.77
2022-09-09T17:22:12.648Z,30.95
2022-09-09T17:24:31.071Z,45.97
2022-09-09T17:26:58.752Z,37.58
2022-09-09T17:29:26.333Z,33.47
2022-09-09T17:31:54.237Z,33.58
2022-09-09T17:34:21.120Z,34.03
2022-09-09T17:36:49.171Z,41.55
2022-09-09T17:39:16.212Z,33.47
2022-09-09T17:41:43.318Z,33.25
2022-09-09T17:44:10.970Z,31.02
2022-09-09T17:46:43.159Z,29.40
2022-09-09T17:49:16.896Z,28.40
2022-09-09T17:51:46.214Z,27.58
2022-09-09T17:54:19.994Z,27.02
2022-09-09T17:56:49.063Z,29.25
2022-09-09T17:59:18.753Z,30.52
2022-09-09T18:01:51.005Z,50.60
2022-09-09T18:04:20.036Z,31.73
2022-09-09T18:06:53.112Z,28.00
2022-09-09T18:11:58.805Z,27.30
2022-09-09T18:14:31.176Z,33.20
2022-09-09T18:17:04.162Z,37.03
2022-09-09T18:19:33.147Z,97.22
2022-09-09T18:22:02.879Z,33.03
2022-09-09T18:24:31.391Z,32.20
2022-09-09T18:27:11.237Z,37.85
2022-09-09T18:29:38.242Z,30.77
2022-09-09T18:32:05.699Z,28.00
2022-09-09T18:34:32.736Z,28.77
2022-09-09T18:36:59.721Z,28.35
2022-09-09T18:39:29.978Z,29.30
2022-09-09T18:42:02.632Z,28.58
2022-09-09T18:44:34.015Z,28.92
2022-09-09T18:47:01.868Z,28.55
2022-09-09T18:49:29.101Z,29.30
2022-09-09T18:51:57.051Z,28.63
2022-09-09T18:54:33.437Z,28.45
2022-09-09T18:57:01.039Z,26.63
2022-09-09T18:59:29.479Z,29.67
2022-09-09T19:01:57.096Z,28.45
2022-09-09T19:04:27.361Z,28.77
2022-09-09T19:06:58.329Z,28.25
2022-09-09T19:09:31.282Z,26.88
2022-09-09T19:12:00.162Z,28.63
2022-09-09T19:14:30.219Z,27.10
2022-09-09T19:16:58.121Z,28.45
2022-09-09T19:19:32.744Z,28.15
2022-09-09T19:22:02.211Z,31.70
2022-09-09T19:24:34.033Z,28.85
2022-09-09T19:27:06.673Z,27.73
2022-09-09T19:29:36.907Z,26.77
2022-09-09T19:34:52.723Z,27.40
2022-09-09T19:37:20.721Z,26.55
2022-09-09T19:39:49.715Z,27.55
2022-09-09T19:42:19.638Z,27.63
2022-09-09T19:44:47.154Z,25.90
2022-09-09T19:47:15.183Z,26.67
2022-09-09T19:49:46.752Z,26.63
2022-09-09T19:52:15.260Z,26.58
2022-09-09T19:54:43.364Z,25.63
2022-09-09T19:57:10.484Z,26.75
2022-09-09T19:59:37.607Z,26.58
2022-09-09T20:02:04.717Z,26.90
2022-09-09T20:04:31.888Z,26.95
2022-09-09T20:06:58.903Z,27.20
2022-09-09T20:09:29.013Z,27.50
2022-09-09T20:11:56.087Z,27.10
2022-09-09T20:14:23.544Z,26.13
2022-09-09T20:16:50.686Z,25.88
2022-09-09T20:19:18.860Z,25.58
2022-09-09T20:21:49.554Z,23.85
2022-09-09T20:24:20.519Z,24.02
2022-09-09T20:26:49.047Z,23.35
2022-09-09T20:29:19.995Z,22.85
2022-09-09T20:31:48.200Z,22.33
2022-09-09T20:34:19.287Z,22.70
2022-09-09T20:36:47.443Z,22.67
2022-09-09T20:39:18.204Z,21.42
2022-09-09T20:41:46.355Z,22.27
2022-09-09T20:44:24.321Z,22.35
2022-09-09T20:47:00.508Z,22.35
2022-09-09T20:49:28.109Z,22.35
2022-09-09T20:51:55.296Z,22.15
2022-09-09T20:54:30.650Z,21.67
2022-09-09T20:56:59.904Z,21.55
2022-09-09T20:59:30.737Z,22.25
2022-09-09T21:01:58.430Z,22.00
2022-09-09T21:04:26.180Z,21.73
2022-09-09T21:06:53.546Z,21.40
2022-09-09T21:09:23.282Z,21.10
2022-09-09T21:11:51.512Z,22.23
2022-09-09T21:14:18.544Z,22.25
2022-09-09T21:16:45.978Z,22.17
2022-09-09T21:19:13.032Z,21.55
2022-09-09T21:21:40.243Z,20.80
2022-09-09T21:24:07.454Z,20.33
2022-09-09T21:26:35.593Z,21.63
2022-09-09T21:29:03.046Z,19.55
2022-09-09T21:31:31.553Z,20.38
2022-09-09T21:33:59.795Z,20.92
2022-09-09T21:36:28.590Z,20.48
2022-09-09T21:38:59.189Z,20.48
2022-09-09T21:41:26.894Z,20.92
2022-09-09T21:43:55.675Z,20.92
2022-09-09T21:46:23.647Z,20.17
2022-09-09T21:48:51.050Z,21.40
2022-09-09T21:51:20.963Z,21.63
2022-09-09T21:53:47.943Z,21.77
2022-09-09T21:56:18.604Z,24.48
2022-09-09T21:58:47.302Z,24.40
2022-09-09T22:01:18.251Z,23.90
2022-09-09T22:03:46.355Z,24.48
2022-09-09T22:06:17.235Z,24.10
2022-09-09T22:08:46.542Z,24.17
2022-09-09T22:11:22.386Z,24.10
2022-09-09T22:13:50.261Z,23.70
2022-09-09T22:16:21.279Z,22.08
2022-09-09T22:19:00.286Z,22.13
2022-09-09T22:21:31.240Z,20.35
2022-09-09T22:24:05.088Z,18.83
2022-09-09T22:26:36.947Z,18.52
2022-09-09T22:29:06.114Z,19.88
2022-09-09T22:31:34.890Z,19.15
2022-09-09T22:34:03.001Z,18.63
2022-09-09T22:36:31.765Z,18.90
2022-09-09T22:38:59.067Z,19.13
2022-09-09T22:41:26.161Z,17.88
2022-09-09T22:43:53.592Z,18.02
2022-09-09T22:46:20.709Z,17.80
2022-09-09T22:48:48.220Z,18.15
2022-09-09T22:51:17.235Z,17.90
2022-09-09T22:53:45.747Z,17.67
2022-09-09T22:56:17.325Z,17.17
2022-09-09T22:58:46.220Z,17.35
2022-09-09T23:01:21.086Z,17.33
2022-09-09T23:03:49.674Z,18.35
2022-09-09T23:06:24.904Z,18.08
2022-09-09T23:08:56.775Z,18.50
2022-09-09T23:11:27.969Z,18.67
2022-09-09T23:13:57.029Z,18.75
2022-09-09T23:16:33.098Z,18.92
2022-09-09T23:19:01.238Z,17.67
2022-09-09T23:21:30.245Z,17.52
2022-09-09T23:23:59.867Z,16.77
2022-09-09T23:26:29.893Z,17.58
2022-09-09T23:28:59.571Z,17.80
2022-09-09T23:31:30.180Z,17.15
2022-09-09T23:33:58.556Z,17.52
2022-09-09T23:36:26.551Z,16.58
2022-09-09T23:38:56.146Z,17.85
2022-09-09T23:41:23.658Z,17.60
2022-09-09T23:43:53.182Z,17.40
2022-09-09T23:46:24.665Z,18.17
2022-09-09T23:48:51.917Z,18.63
2022-09-09T23:51:23.885Z,18.90
2022-09-09T23:53:54.129Z,19.35
2022-09-09T23:56:30.002Z,19.65
2022-09-09T23:58:57.173Z,20.00
